Time;durP1;ratioP1;P1;durP2;ratioP2;P2;SDS_P1;SDS_P2;PMS_P1;PMS_P2;Temp;Humidity;BMP_temperature;BMP_pressure;BME280_temperature;BME280_humidity;BME280_pressure;Samples;Min_cycle;Max_cycle;Signal;HPM_P1;HPM_P2
2021/03/12 00:02:08;;;;;;;46.53;6.68;;;5.40;99.90;;;;;;5051143;28;20029;-79
2021/03/12 00:04:33;;;;;;;50.50;6.57;;;5.40;99.90;;;;;;5049901;28;20190;-80
2021/03/12 00:06:59;;;;;;;60.78;7.43;;;5.40;99.90;;;;;;5051365;28;20064;-80
2021/03/12 00:09:25;;;;;;;61.22;8.20;;;5.40;99.90;;;;;;5051484;28;20491;-80
2021/03/12 00:11:52;;;;;;;59.58;7.53;;;5.40;99.90;;;;;;5033788;28;20029;-79
2021/03/12 00:14:18;;;;;;;60.20;6.65;;;5.50;99.90;;;;;;5050755;28;20055;-80
2021/03/12 00:16:43;;;;;;;42.00;6.10;;;5.40;99.90;;;;;;5051127;28;20509;-80
2021/03/12 00:19:09;;;;;;;43.63;5.57;;;5.50;99.90;;;;;;5051158;28;20033;-80
2021/03/12 00:21:35;;;;;;;64.55;8.77;;;5.50;99.90;;;;;;5033355;28;20123;-80
2021/03/12 00:24:00;;;;;;;37.75;6.68;;;5.60;99.90;;;;;;5050341;28;20040;-80
2021/03/12 00:26:26;;;;;;;38.42;6.05;;;5.50;99.90;;;;;;5051245;28;20384;-80
2021/03/12 00:28:52;;;;;;;43.05;5.72;;;5.50;99.90;;;;;;5051279;28;20013;-80
2021/03/12 00:31:17;;;;;;;34.58;5.47;;;5.50;99.90;;;;;;5051354;28;20104;-79
2021/03/12 00:33:43;;;;;;;46.38;5.60;;;5.50;99.90;;;;;;5050425;28;20029;-80
2021/03/12 00:36:09;;;;;;;44.70;5.80;;;5.40;99.90;;;;;;5033231;28;20117;-81
2021/03/12 00:38:34;;;;;;;55.40;5.75;;;5.40;99.90;;;;;;5051288;28;20476;-80
2021/03/12 00:41:05;;;;;;;36.40;5.82;;;5.40;99.90;;;;;;5051080;28;20087;-80
2021/03/12 00:43:30;;;;;;;56.00;5.68;;;5.40;99.90;;;;;;5050712;28;20021;-80
2021/03/12 00:46:02;;;;;;;39.78;6.85;;;5.40;99.90;;;;;;5050484;28;20091;-81
2021/03/12 00:48:28;;;;;;;50.22;6.05;;;5.40;99.90;;;;;;5050646;28;20029;-80
2021/03/12 00:50:54;;;;;;;30.52;4.53;;;5.40;99.90;;;;;;5050989;28;20393;-81
2021/03/12 00:53:20;;;;;;;41.10;5.63;;;5.40;99.90;;;;;;5051344;28;20033;-80
2021/03/12 00:55:46;;;;;;;53.55;5.60;;;5.40;99.90;;;;;;5049965;28;20561;-80
2021/03/12 00:58:12;;;;;;;32.60;4.78;;;5.40;99.90;;;;;;5051188;28;20112;-80
2021/03/12 01:00:38;;;;;;;40.75;5.03;;;5.50;99.90;;;;;;5050977;28;20078;-80
2021/03/12 01:03:05;;;;;;;38.88;5.43;;;5.50;99.90;;;;;;5050628;28;20029;-80
2021/03/12 01:05:31;;;;;;;39.78;6.72;;;5.50;99.90;;;;;;5050416;28;20024;-80
2021/03/12 01:07:57;;;;;;;59.20;6.43;;;5.50;99.90;;;;;;5051190;28;20021;-80
2021/03/12 01:10:24;;;;;;;40.97;6.28;;;5.40;99.90;;;;;;5033204;28;20017;-80
2021/03/12 01:12:51;;;;;;;39.83;5.18;;;5.40;99.90;;;;;;5050868;28;20486;-80
2021/03/12 01:15:22;;;;;;;51.20;7.20;;;5.40;99.90;;;;;;5051878;28;20396;-80
2021/03/12 01:17:47;;;;;;;43.10;6.13;;;5.40;99.90;;;;;;5036719;28;20583;-80
2021/03/12 01:20:16;;;;;;;39.13;5.72;;;5.40;99.90;;;;;;5036472;28;20040;-80
2021/03/12 01:22:43;;;;;;;36.67;5.43;;;5.40;99.90;;;;;;5054509;28;20025;-80
2021/03/12 01:25:12;;;;;;;45.63;6.47;;;5.50;99.90;;;;;;5053514;28;20033;-80
2021/03/12 01:27:40;;;;;;;49.47;6.40;;;5.50;99.90;;;;;;5054462;28;20100;-80
2021/03/12 01:30:23;;;;;;;52.70;6.65;;;5.50;99.90;;;;;;5054296;28;20029;-80
2021/03/12 01:32:49;;;;;;;47.85;5.57;;;5.50;99.90;;;;;;5054519;28;20104;-81
2021/03/12 01:35:15;;;;;;;48.20;5.97;;;5.40;99.90;;;;;;5052904;28;20450;-81
2021/03/12 01:37:41;;;;;;;46.90;5.90;;;5.40;99.90;;;;;;5034360;28;20029;-80
2021/03/12 01:40:11;;;;;;;61.17;6.95;;;5.40;99.90;;;;;;5034131;28;20481;-81
2021/03/12 01:42:36;;;;;;;49.22;6.60;;;5.40;99.90;;;;;;5034093;28;20029;-80
2021/03/12 01:45:09;;;;;;;50.28;6.03;;;5.40;99.90;;;;;;5047751;28;20425;-80
2021/03/12 01:47:34;;;;;;;53.45;7.60;;;5.40;99.90;;;;;;5054136;28;20013;-80
2021/03/12 01:50:00;;;;;;;50.08;6.82;;;5.40;99.90;;;;;;5053649;28;20040;-80
2021/03/12 01:52:25;;;;;;;48.15;6.32;;;5.40;99.90;;;;;;5035788;28;20066;-80
2021/03/12 01:54:51;;;;;;;68.63;8.75;;;5.40;99.90;;;;;;5035482;28;20063;-79
2021/03/12 01:57:17;;;;;;;58.90;6.70;;;5.40;99.90;;;;;;5053806;28;20029;-80
2021/03/12 01:59:42;;;;;;;68.25;9.02;;;5.40;99.90;;;;;;5053001;28;20444;-80
2021/03/12 02:02:08;;;;;;;68.43;7.70;;;5.40;99.90;;;;;;5035634;28;20660;-80
2021/03/12 02:04:33;;;;;;;54.60;6.80;;;5.40;99.90;;;;;;5052667;28;20029;-80
2021/03/12 02:06:59;;;;;;;54.97;6.35;;;5.30;99.90;;;;;;5053106;28;20033;-80
2021/03/12 02:09:25;;;;;;;54.08;6.70;;;5.40;99.90;;;;;;5053691;28;20512;-80
2021/03/12 02:12:29;;;;;;;61.60;7.07;;;5.40;99.90;;;;;;5053639;28;20025;-80
2021/03/12 02:15:12;;;;;;;50.03;7.40;;;5.40;99.90;;;;;;4983047;28;20034;-80
2021/03/12 02:17:48;;;;;;;51.80;9.20;;;5.40;99.90;;;;;;5033736;28;20021;-80
2021/03/12 02:20:51;;;;;;;40.90;5.13;;;5.40;99.90;;;;;;5051825;28;20017;-80
2021/03/12 02:23:40;;;;;;;64.30;9.45;;;5.40;99.90;;;;;;5034897;28;20056;-81
2021/03/12 02:26:30;;;;;;;47.78;6.38;;;5.40;99.90;;;;;;5052648;28;20362;-80
2021/03/12 02:28:58;;;;;;;57.72;6.75;;;5.30;99.90;;;;;;5053121;28;20023;-80
2021/03/12 02:31:24;;;;;;;65.32;8.63;;;5.30;99.90;;;;;;5053362;28;20025;-80
2021/03/12 02:33:51;;;;;;;55.97;7.05;;;5.30;99.90;;;;;;5052360;28;20032;-80
2021/03/12 02:36:20;;;;;;;57.35;7.05;;;5.30;99.90;;;;;;5052848;28;20069;-80
2021/03/12 02:38:47;;;;;;;59.83;7.47;;;5.40;99.90;;;;;;5053125;28;20087;-80
2021/03/12 02:41:13;;;;;;;58.33;7.80;;;5.40;99.90;;;;;;5034901;28;20025;-80
2021/03/12 02:43:39;;;;;;;62.13;7.50;;;5.40;99.90;;;;;;5034536;28;20029;-80
2021/03/12 02:46:05;;;;;;;78.65;8.80;;;5.30;99.90;;;;;;5052907;28;20473;-80
2021/03/12 02:48:32;;;;;;;55.65;7.18;;;5.40;99.90;;;;;;5052438;28;20083;-80
2021/03/12 02:50:57;;;;;;;59.67;7.45;;;5.40;99.90;;;;;;5034867;28;20111;-80
2021/03/12 02:53:24;;;;;;;73.85;9.13;;;5.50;99.90;;;;;;5052513;28;20076;-79
2021/03/12 02:55:50;;;;;;;76.40;9.27;;;5.40;99.90;;;;;;5051854;28;20108;-80
2021/03/12 02:58:16;;;;;;;74.38;7.85;;;5.40;99.90;;;;;;5052638;28;20048;-80
2021/03/12 03:00:42;;;;;;;71.03;8.77;;;5.40;99.90;;;;;;5034806;28;20932;-80
2021/03/12 03:03:10;;;;;;;49.33;8.00;;;5.40;99.90;;;;;;5052319;28;20540;-79
2021/03/12 03:05:36;;;;;;;65.18;8.25;;;5.40;99.90;;;;;;5051795;28;20052;-80
2021/03/12 03:08:04;;;;;;;59.47;7.68;;;5.30;99.90;;;;;;5052619;28;20013;-79
2021/03/12 03:10:30;;;;;;;68.97;7.75;;;5.20;99.90;;;;;;5052498;28;20024;-80
2021/03/12 03:12:56;;;;;;;77.60;8.13;;;5.20;99.90;;;;;;5052367;28;20032;-80
2021/03/12 03:15:24;;;;;;;75.85;8.60;;;5.20;99.90;;;;;;5050647;28;20036;-80
2021/03/12 03:17:51;;;;;;;74.55;7.85;;;5.20;99.90;;;;;;5051587;28;20028;-80
2021/03/12 03:20:18;;;;;;;70.47;8.98;;;5.10;99.90;;;;;;5051872;28;20111;-80
2021/03/12 03:22:44;;;;;;;63.95;7.00;;;5.10;99.90;;;;;;5052151;28;20028;-80
2021/03/12 03:25:12;;;;;;;78.30;9.38;;;5.10;99.90;;;;;;5051379;28;20393;-80
2021/03/12 03:27:38;;;;;;;70.25;8.35;;;5.10;99.90;;;;;;5051738;28;20021;-80
2021/03/12 03:30:09;;;;;;;64.15;10.00;;;5.10;99.90;;;;;;5052057;28;20107;-80
2021/03/12 03:32:35;;;;;;;53.15;7.28;;;5.10;99.90;;;;;;5052118;28;20169;-79
2021/03/12 03:35:01;;;;;;;68.57;8.70;;;5.10;99.90;;;;;;5051165;28;20455;-80
2021/03/12 03:37:29;;;;;;;61.35;6.88;;;5.10;99.90;;;;;;5051085;28;20029;-79
2021/03/12 03:39:55;;;;;;;83.13;8.73;;;5.20;99.90;;;;;;5052119;28;20100;-79
2021/03/12 03:42:24;;;;;;;64.90;8.18;;;5.10;99.90;;;;;;5052040;28;20036;-79
2021/03/12 03:44:50;;;;;;;63.00;7.53;;;5.10;99.90;;;;;;5050705;28;20605;-79
2021/03/12 03:47:16;;;;;;;94.85;11.13;;;5.20;99.90;;;;;;5051926;28;20028;-79
2021/03/12 03:49:43;;;;;;;69.15;8.05;;;5.10;99.90;;;;;;5051611;28;20397;-80
2021/03/12 03:52:10;;;;;;;74.88;9.23;;;5.10;99.90;;;;;;5051655;28;20745;-80
2021/03/12 03:54:37;;;;;;;72.13;8.38;;;5.00;99.90;;;;;;5050863;28;20033;-79
2021/03/12 03:57:03;;;;;;;72.32;11.00;;;5.10;99.90;;;;;;5051749;28;20068;-80
2021/03/12 03:59:31;;;;;;;72.13;7.93;;;5.00;99.90;;;;;;5051461;28;20033;-80
2021/03/12 04:01:58;;;;;;;61.22;7.95;;;5.00;99.90;;;;;;5051468;28;20094;-79
2021/03/12 04:04:24;;;;;;;77.18;7.95;;;4.90;99.90;;;;;;5050705;28;20025;-80
2021/03/12 04:06:49;;;;;;;70.80;7.88;;;4.90;99.90;;;;;;5051419;28;20405;-80
2021/03/12 04:09:16;;;;;;;61.53;8.80;;;4.90;99.90;;;;;;5051556;28;20021;-79
2021/03/12 04:11:42;;;;;;;56.35;8.68;;;4.80;99.90;;;;;;5051605;28;20018;-80
2021/03/12 04:14:10;;;;;;;94.15;9.73;;;4.80;99.90;;;;;;5050898;28;20399;-79
2021/03/12 04:16:36;;;;;;;72.82;8.63;;;4.80;99.90;;;;;;5051187;28;20575;-80
2021/03/12 04:19:02;;;;;;;82.47;9.88;;;4.90;99.90;;;;;;5051049;28;20044;-80
2021/03/12 04:21:28;;;;;;;85.95;9.70;;;4.90;99.90;;;;;;5051253;28;20028;-80
2021/03/12 04:23:55;;;;;;;78.30;9.02;;;4.90;99.90;;;;;;5050761;28;20021;-80
2021/03/12 04:26:21;;;;;;;84.50;9.85;;;4.80;99.90;;;;;;5051160;28;20039;-80
2021/03/12 04:28:47;;;;;;;66.63;8.82;;;4.80;99.90;;;;;;5051004;28;20518;-80
2021/03/12 04:31:13;;;;;;;85.13;10.82;;;4.80;99.90;;;;;;5051359;28;20462;-80
2021/03/12 04:33:40;;;;;;;76.82;9.05;;;4.80;99.90;;;;;;5050640;28;20032;-80
2021/03/12 04:36:07;;;;;;;71.75;8.35;;;4.80;99.90;;;;;;5051156;28;20025;-80
2021/03/12 04:38:33;;;;;;;80.13;8.73;;;4.80;99.90;;;;;;5051271;28;20067;-80
2021/03/12 04:41:00;;;;;;;73.15;9.65;;;4.80;99.90;;;;;;5051194;28;20021;-80
2021/03/12 04:43:26;;;;;;;68.97;8.68;;;4.60;99.90;;;;;;5032885;28;20033;-80
2021/03/12 04:45:51;;;;;;;69.45;8.07;;;4.70;99.90;;;;;;5050604;28;20021;-79
2021/03/12 04:48:17;;;;;;;68.95;8.32;;;4.60;99.90;;;;;;5051481;28;20028;-79
2021/03/12 04:50:43;;;;;;;75.28;8.52;;;4.60;99.90;;;;;;5037122;28;20490;-80
2021/03/12 04:53:10;;;;;;;68.80;10.98;;;4.60;99.90;;;;;;5055282;28;20064;-80
2021/03/12 04:55:36;;;;;;;74.38;8.43;;;4.60;99.90;;;;;;5054211;28;20393;-79
2021/03/12 04:58:02;;;;;;;71.25;7.80;;;4.70;99.90;;;;;;5037270;28;20029;-80
2021/03/12 05:00:30;;;;;;;74.53;10.27;;;4.70;99.90;;;;;;5054950;28;20385;-79
2021/03/12 05:02:56;;;;;;;79.47;8.90;;;4.80;99.90;;;;;;5054849;28;20033;-79
2021/03/12 05:05:23;;;;;;;73.15;8.30;;;4.80;99.90;;;;;;5054012;28;20050;-80
2021/03/12 05:07:50;;;;;;;80.40;10.65;;;4.90;99.90;;;;;;5054926;28;20151;-80
2021/03/12 05:10:15;;;;;;;77.20;8.40;;;4.90;99.90;;;;;;5054804;28;20021;-79
2021/03/12 05:12:41;;;;;;;70.10;9.85;;;4.90;99.90;;;;;;5036911;28;20044;-80
2021/03/12 05:15:07;;;;;;;73.57;8.68;;;4.90;99.90;;;;;;5053590;28;20037;-79
2021/03/12 05:17:32;;;;;;;81.63;9.13;;;4.90;99.90;;;;;;5054054;28;20032;-79
2021/03/12 05:19:58;;;;;;;82.18;7.70;;;4.80;99.90;;;;;;5036507;28;20032;-80
2021/03/12 05:22:24;;;;;;;95.63;10.27;;;4.70;99.90;;;;;;5054666;28;20108;-80
2021/03/12 05:24:49;;;;;;;69.75;8.50;;;4.70;99.90;;;;;;5053928;28;20083;-79
2021/03/12 05:27:15;;;;;;;85.97;9.82;;;4.60;99.90;;;;;;5036384;28;20485;-80
2021/03/12 05:29:41;;;;;;;79.38;8.35;;;4.60;99.90;;;;;;5054198;28;20102;-79
2021/03/12 05:32:06;;;;;;;63.47;8.90;;;4.50;99.90;;;;;;5036523;28;20025;-80
2021/03/12 05:34:32;;;;;;;58.85;8.13;;;4.50;99.90;;;;;;5053670;28;20044;-80
2021/03/12 05:36:58;;;;;;;82.43;8.88;;;4.50;99.90;;;;;;5036523;28;20032;-80
2021/03/12 05:39:24;;;;;;;70.68;10.10;;;4.50;99.90;;;;;;5054268;28;20025;-79
2021/03/12 05:41:50;;;;;;;68.13;8.52;;;4.40;99.90;;;;;;5054301;28;20066;-80
2021/03/12 05:44:17;;;;;;;65.93;7.93;;;4.40;99.90;;;;;;5052917;28;20061;-79
2021/03/12 05:46:43;;;;;;;67.75;9.25;;;4.50;99.90;;;;;;5036317;28;20040;-80
2021/03/12 05:49:09;;;;;;;51.53;8.00;;;4.50;99.90;;;;;;5053737;28;20162;-80
2021/03/12 05:51:36;;;;;;;83.18;9.70;;;4.50;99.90;;;;;;5036220;28;20028;-79
2021/03/12 05:54:05;;;;;;;82.05;11.13;;;4.50;99.90;;;;;;5035572;28;20052;-80
2021/03/12 05:56:35;;;;;;;78.10;9.25;;;4.50;99.90;;;;;;5054175;28;20428;-80
2021/03/12 05:59:02;;;;;;;70.03;11.18;;;4.50;99.90;;;;;;5053906;28;20025;-80
2021/03/12 06:01:30;;;;;;;79.13;9.20;;;4.50;99.90;;;;;;5053177;28;20028;-79
2021/03/12 06:03:55;;;;;;;57.13;7.95;;;4.60;99.90;;;;;;5052853;28;20029;-79
2021/03/12 06:06:21;;;;;;;68.13;8.43;;;4.70;99.90;;;;;;5053933;28;20067;-80
2021/03/12 06:08:46;;;;;;;72.40;8.77;;;4.70;99.90;;;;;;5035893;28;20489;-79
2021/03/12 06:11:12;;;;;;;57.25;8.95;;;4.70;99.90;;;;;;5053805;28;20025;-80
2021/03/12 06:13:52;;;;;;;64.30;9.13;;;4.70;99.90;;;;;;5053305;28;20059;-79
2021/03/12 06:16:29;;;;;;;68.82;8.98;;;4.70;99.90;;;;;;5053772;28;20032;-79
2021/03/12 06:19:13;;;;;;;72.85;9.48;;;4.60;99.90;;;;;;5035356;28;20028;-80
2021/03/12 06:21:46;;;;;;;85.05;8.80;;;4.60;99.90;;;;;;5035733;28;20461;-79
2021/03/12 06:24:41;;;;;;;70.57;9.35;;;4.50;99.90;;;;;;5052872;28;20040;-80
2021/03/12 06:27:06;;;;;;;86.25;9.82;;;4.50;99.90;;;;;;5014646;28;20028;-79
2021/03/12 06:29:37;;;;;;;71.85;9.25;;;4.50;99.90;;;;;;5053246;28;20074;-80
2021/03/12 06:32:04;;;;;;;69.55;9.55;;;4.60;99.90;;;;;;5053322;28;20021;-80
2021/03/12 06:34:30;;;;;;;80.13;11.98;;;4.60;99.90;;;;;;5052388;28;20079;-80
2021/03/12 06:36:56;;;;;;;75.90;10.10;;;4.60;99.90;;;;;;5035184;28;20067;-79
2021/03/12 06:39:33;;;;;;;79.55;9.25;;;4.60;99.90;;;;;;5035290;28;20049;-79
2021/03/12 06:41:58;;;;;;;70.10;9.80;;;4.60;99.90;;;;;;5053122;28;20022;-79
2021/03/12 06:44:33;;;;;;;68.68;9.13;;;4.60;99.90;;;;;;5052138;28;20451;-79
2021/03/12 06:46:59;;;;;;;68.95;9.13;;;4.70;99.90;;;;;;5035099;28;20027;-79
2021/03/12 06:49:25;;;;;;;89.13;9.63;;;4.70;99.90;;;;;;5034748;28;20083;-79
2021/03/12 06:51:59;;;;;;;86.50;8.65;;;4.70;99.90;;;;;;5053009;28;20029;-80
2021/03/12 06:54:26;;;;;;;67.97;8.63;;;4.80;99.90;;;;;;5034006;28;20029;-80
2021/03/12 06:56:52;;;;;;;89.22;9.27;;;4.80;99.90;;;;;;5035008;28;20040;-80
2021/03/12 06:59:31;;;;;;;75.75;8.55;;;4.90;99.90;;;;;;5052683;28;20076;-79
2021/03/12 07:02:06;;;;;;;53.53;9.38;;;4.90;99.90;;;;;;5052729;28;20021;-80
2021/03/12 07:04:32;;;;;;;62.92;9.25;;;5.00;99.90;;;;;;5033971;28;20029;-79
2021/03/12 07:06:59;;;;;;;92.97;9.00;;;5.00;99.90;;;;;;5034865;28;20021;-79
2021/03/12 07:09:26;;;;;;;68.03;8.35;;;5.00;99.90;;;;;;5052559;28;20025;-80
2021/03/12 07:11:56;;;;;;;66.88;11.77;;;5.00;99.90;;;;;;5051662;28;20024;-80
2021/03/12 07:14:22;;;;;;;61.17;7.78;;;5.10;99.90;;;;;;5051444;28;20046;-79
2021/03/12 07:16:51;;;;;;;62.47;8.35;;;5.00;99.90;;;;;;5052507;28;20389;-79
2021/03/12 07:19:20;;;;;;;58.72;7.85;;;5.00;99.90;;;;;;5052155;28;20036;-80
2021/03/12 07:21:47;;;;;;;55.15;9.50;;;5.10;99.90;;;;;;5052515;28;20031;-79
2021/03/12 07:24:15;;;;;;;66.10;8.18;;;5.00;99.90;;;;;;5033150;28;20036;-79
2021/03/12 07:26:45;;;;;;;80.38;10.43;;;5.10;99.90;;;;;;5032347;28;20037;-79
2021/03/12 07:29:12;;;;;;;64.53;7.80;;;5.20;99.90;;;;;;5032261;28;20032;-79
2021/03/12 07:31:40;;;;;;;68.82;9.00;;;5.20;99.90;;;;;;5032336;28;20022;-79
2021/03/12 07:34:12;;;;;;;74.82;9.20;;;5.20;99.90;;;;;;5040432;28;20033;-79
2021/03/12 07:36:45;;;;;;;66.97;7.57;;;5.30;99.90;;;;;;5051645;28;20029;-80
2021/03/12 07:39:15;;;;;;;67.38;7.75;;;5.30;99.90;;;;;;5034288;28;20416;-80
2021/03/12 07:41:42;;;;;;;59.85;7.60;;;5.40;99.90;;;;;;5052004;28;20033;-79
2021/03/12 07:44:12;;;;;;;59.63;8.98;;;5.40;99.90;;;;;;5033232;28;20511;-79
2021/03/12 07:46:39;;;;;;;66.38;6.82;;;5.40;99.90;;;;;;5052019;28;20392;-79
2021/03/12 07:49:30;;;;;;;68.90;8.50;;;5.50;99.90;;;;;;5048567;28;20028;-79
2021/03/12 07:51:57;;;;;;;53.83;7.32;;;5.50;99.90;;;;;;5050752;28;20031;-79
2021/03/12 07:54:39;;;;;;;66.43;9.63;;;5.50;99.90;;;;;;5050041;28;20029;-79
2021/03/12 07:57:05;;;;;;;66.85;8.38;;;5.40;99.90;;;;;;5051204;28;20501;-79
2021/03/12 07:59:46;;;;;;;69.38;9.10;;;5.50;99.90;;;;;;5051094;28;20029;-79
2021/03/12 08:02:13;;;;;;;67.53;7.68;;;5.40;99.90;;;;;;5028515;28;20025;-79
2021/03/12 08:04:39;;;;;;;68.97;8.45;;;5.50;99.90;;;;;;5043854;28;20147;-79
2021/03/12 08:07:17;;;;;;;68.40;9.77;;;5.50;99.90;;;;;;5051402;28;20025;-79
2021/03/12 08:09:43;;;;;;;58.50;7.30;;;5.50;99.90;;;;;;5051187;28;20104;-79
2021/03/12 08:12:37;;;;;;;75.35;8.23;;;5.60;99.90;;;;;;5051250;28;20025;-79
2021/03/12 08:15:14;;;;;;;76.15;8.38;;;5.50;99.90;;;;;;5050211;28;20115;-80
2021/03/12 08:17:39;;;;;;;60.17;8.38;;;5.60;99.90;;;;;;5051814;28;20478;-79
2021/03/12 08:20:29;;;;;;;60.55;7.47;;;5.50;99.90;;;;;;5052997;28;20123;-78
2021/03/12 08:22:59;;;;;;;74.22;9.48;;;5.60;99.90;;;;;;5040069;28;20505;-79
2021/03/12 08:25:40;;;;;;;68.95;8.23;;;5.60;99.90;;;;;;5050670;28;20033;-79
2021/03/12 08:28:11;;;;;;;57.08;7.65;;;5.60;99.90;;;;;;5051073;28;20032;-79
2021/03/12 08:30:39;;;;;;;64.18;8.27;;;5.60;99.90;;;;;;5051119;28;20025;-79
2021/03/12 08:33:24;;;;;;;86.82;9.23;;;5.60;99.90;;;;;;5050655;28;20032;-79
2021/03/12 08:35:51;;;;;;;82.60;9.68;;;5.60;99.90;;;;;;5050707;28;20032;-80
2021/03/12 08:38:24;;;;;;;53.10;8.13;;;5.60;99.90;;;;;;5032985;28;20033;-79
2021/03/12 08:40:55;;;;;;;51.75;7.20;;;5.60;99.90;;;;;;5051116;28;20550;-79
2021/03/12 08:43:24;;;;;;;82.93;10.75;;;5.70;99.90;;;;;;5051153;28;20037;-79
2021/03/12 08:45:51;;;;;;;46.70;6.60;;;5.70;99.90;;;;;;5050699;28;20027;-79
2021/03/12 08:48:30;;;;;;;64.28;7.63;;;5.80;99.90;;;;;;5050451;28;20028;-79
2021/03/12 08:51:00;;;;;;;73.10;8.98;;;5.90;99.90;;;;;;5050838;28;20082;-80
2021/03/12 08:53:27;;;;;;;75.88;10.10;;;5.90;99.90;;;;;;5051208;28;20021;-80
2021/03/12 08:55:55;;;;;;;49.70;7.68;;;5.90;99.90;;;;;;5031462;28;20405;-80
2021/03/12 08:58:27;;;;;;;67.45;9.75;;;5.90;99.90;;;;;;5050949;28;20025;-79
2021/03/12 09:00:54;;;;;;;64.07;8.18;;;5.90;99.90;;;;;;5050747;28;20025;-79
2021/03/12 09:03:24;;;;;;;45.58;8.10;;;6.00;99.90;;;;;;5051057;28;20028;-79
2021/03/12 09:05:51;;;;;;;63.88;8.48;;;6.00;99.90;;;;;;5050315;28;20031;-80
2021/03/12 09:08:24;;;;;;;63.22;8.70;;;6.00;99.90;;;;;;5051052;28;20067;-79
2021/03/12 09:10:51;;;;;;;57.75;8.40;;;6.10;99.90;;;;;;5050561;28;20104;-79
2021/03/12 09:13:23;;;;;;;54.47;6.63;;;6.10;99.90;;;;;;5050950;28;20033;-79
2021/03/12 09:15:50;;;;;;;73.80;7.30;;;6.20;99.90;;;;;;5049438;28;20113;-79
2021/03/12 09:18:20;;;;;;;73.75;8.45;;;6.30;99.90;;;;;;5050657;28;20028;-77
2021/03/12 09:20:51;;;;;;;56.25;7.43;;;6.30;99.90;;;;;;5050870;28;20143;-78
2021/03/12 09:23:17;;;;;;;54.85;9.45;;;6.30;99.90;;;;;;5050706;28;20096;-77
2021/03/12 09:25:42;;;;;;;40.38;6.15;;;6.30;99.90;;;;;;5049393;28;20025;-78
2021/03/12 09:28:13;;;;;;;51.25;7.82;;;6.20;99.90;;;;;;5050856;28;20032;-78
2021/03/12 09:30:43;;;;;;;39.97;6.40;;;6.10;99.90;;;;;;5050235;28;20480;-77
2021/03/12 09:33:26;;;;;;;75.13;9.98;;;6.10;99.90;;;;;;5050917;28;20029;-77
2021/03/12 09:35:51;;;;;;;48.08;7.50;;;6.10;99.90;;;;;;5051164;28;20079;-78
2021/03/12 09:38:38;;;;;;;90.45;9.82;;;5.90;99.90;;;;;;5054360;28;20033;-77
2021/03/12 09:41:21;;;;;;;52.90;6.82;;;6.00;99.90;;;;;;5036296;28;20078;-78
2021/03/12 09:44:08;;;;;;;51.42;8.18;;;6.00;99.90;;;;;;5035708;28;20033;-77
2021/03/12 09:46:40;;;;;;;74.38;7.60;;;6.00;99.90;;;;;;5034905;28;20021;-79
2021/03/12 09:49:14;;;;;;;65.60;11.30;;;6.00;99.90;;;;;;5053987;28;20477;-79
2021/03/12 09:51:43;;;;;;;51.90;6.38;;;5.90;99.90;;;;;;5054460;28;20036;-79
2021/03/12 09:54:13;;;;;;;87.50;11.40;;;6.00;99.90;;;;;;5053228;28;20021;-79
2021/03/12 09:56:44;;;;;;;65.53;7.63;;;6.00;99.90;;;;;;5044677;28;20035;-79
2021/03/12 09:59:10;;;;;;;65.50;8.27;;;6.00;99.90;;;;;;5053411;28;20537;-79
2021/03/12 10:01:39;;;;;;;65.20;8.30;;;6.00;99.90;;;;;;5053494;28;20116;-78
2021/03/12 10:04:32;;;;;;;74.38;8.80;;;6.00;99.90;;;;;;5053215;28;20028;-78
2021/03/12 10:07:00;;;;;;;84.85;9.95;;;6.00;99.90;;;;;;5052297;28;20412;-79
2021/03/12 10:09:25;;;;;;;70.10;8.70;;;6.10;99.90;;;;;;5053425;28;20025;-79
2021/03/12 10:11:52;;;;;;;73.80;8.70;;;6.20;99.90;;;;;;5060225;28;20550;-80
2021/03/12 10:14:29;;;;;;;77.55;9.82;;;6.30;99.90;;;;;;5065318;28;20497;-79
2021/03/12 10:17:11;;;;;;;72.55;7.93;;;6.40;99.90;;;;;;5053097;28;20032;-77
2021/03/12 10:19:59;;;;;;;62.35;7.88;;;6.40;99.90;;;;;;5035121;28;20649;-79
2021/03/12 10:22:34;;;;;;;59.53;8.07;;;6.50;99.90;;;;;;5053545;28;20021;-79
2021/03/12 10:25:12;;;;;;;49.33;7.32;;;6.70;99.90;;;;;;5052256;28;20021;-78
2021/03/12 10:27:49;;;;;;;58.47;8.20;;;6.80;99.90;;;;;;5035347;28;20021;-79
2021/03/12 10:30:18;;;;;;;61.25;10.07;;;6.80;99.90;;;;;;5052825;28;20067;-80
2021/03/12 10:32:53;;;;;;;65.65;8.13;;;7.00;99.90;;;;;;5053246;28;20044;-79
2021/03/12 10:35:30;;;;;;;61.97;8.18;;;7.30;99.90;;;;;;5052395;28;20033;-79
2021/03/12 10:38:05;;;;;;;50.05;6.90;;;7.30;99.90;;;;;;5053415;28;20028;-79
2021/03/12 10:40:42;;;;;;;65.70;8.23;;;7.40;99.90;;;;;;5052941;28;20021;-79
2021/03/12 10:43:19;;;;;;;49.83;8.50;;;7.20;99.90;;;;;;5052889;28;20021;-78
2021/03/12 10:45:50;;;;;;;60.03;8.15;;;7.10;99.90;;;;;;5051774;28;20025;-78
2021/03/12 10:48:17;;;;;;;59.10;8.85;;;7.00;99.90;;;;;;5052636;28;20033;-78
2021/03/12 10:50:50;;;;;;;69.85;7.90;;;6.90;99.90;;;;;;5052653;28;20029;-79
2021/03/12 10:53:15;;;;;;;70.80;7.88;;;6.80;99.90;;;;;;5035023;28;20082;-78
2021/03/12 10:55:47;;;;;;;71.43;8.07;;;6.90;99.90;;;;;;5051733;28;20406;-78
2021/03/12 10:58:33;;;;;;;62.40;8.27;;;7.00;99.90;;;;;;5052884;28;20515;-78
2021/03/12 11:01:06;;;;;;;58.67;8.52;;;6.90;99.90;;;;;;5034393;28;20056;-78
2021/03/12 11:03:31;;;;;;;55.93;8.10;;;6.90;99.90;;;;;;5052422;28;20035;-78
2021/03/12 11:05:57;;;;;;;60.58;8.93;;;6.90;99.90;;;;;;5051411;28;20771;-78
2021/03/12 11:08:22;;;;;;;58.78;7.95;;;6.80;99.90;;;;;;5052266;28;20075;-77
2021/03/12 11:10:48;;;;;;;62.53;8.18;;;6.80;99.90;;;;;;5052310;28;20067;-78
2021/03/12 11:13:14;;;;;;;68.30;9.38;;;6.70;99.90;;;;;;5052496;28;20029;-79
2021/03/12 11:15:39;;;;;;;60.42;8.30;;;6.50;99.90;;;;;;5051160;28;20040;-79
2021/03/12 11:18:05;;;;;;;66.05;9.65;;;6.50;99.90;;;;;;5052324;28;20493;-78
2021/03/12 11:20:31;;;;;;;62.10;9.50;;;6.50;99.90;;;;;;5034621;28;20452;-78
2021/03/12 11:22:56;;;;;;;74.65;9.75;;;6.60;99.90;;;;;;5052253;28;20044;-78
2021/03/12 11:25:22;;;;;;;54.05;7.82;;;6.60;99.90;;;;;;5051277;28;20104;-79
2021/03/12 11:27:48;;;;;;;64.75;9.88;;;6.70;99.90;;;;;;5034330;28;20032;-78
2021/03/12 11:30:17;;;;;;;70.80;7.60;;;6.70;99.90;;;;;;5051914;28;20029;-79
2021/03/12 11:32:44;;;;;;;58.72;7.45;;;6.70;99.90;;;;;;5052227;28;20083;-78
2021/03/12 11:35:10;;;;;;;75.35;12.10;;;6.70;99.90;;;;;;5051170;28;20078;-78
2021/03/12 11:37:36;;;;;;;59.72;9.98;;;6.90;99.90;;;;;;5051171;28;20040;-78
2021/03/12 11:40:03;;;;;;;78.55;9.00;;;6.90;99.90;;;;;;5052035;28;20021;-78
2021/03/12 11:42:28;;;;;;;67.28;8.50;;;7.00;99.90;;;;;;5052010;28;20053;-79
2021/03/12 11:44:54;;;;;;;55.58;8.60;;;6.80;99.90;;;;;;5032707;28;20095;-78
2021/03/12 11:47:19;;;;;;;59.15;8.68;;;6.70;99.90;;;;;;5051972;28;20017;-78
2021/03/12 11:49:47;;;;;;;50.92;7.32;;;6.60;99.90;;;;;;5051559;28;20021;-78
2021/03/12 11:52:14;;;;;;;57.78;8.52;;;6.50;99.90;;;;;;5051721;28;20021;-77
2021/03/12 11:54:39;;;;;;;75.40;8.32;;;6.30;99.90;;;;;;5050991;28;20029;-78
2021/03/12 11:57:05;;;;;;;70.72;9.77;;;6.10;99.90;;;;;;5032916;28;20102;-77
2021/03/12 11:59:30;;;;;;;78.85;14.32;;;6.10;99.90;;;;;;5032825;28;20065;-77
2021/03/12 12:01:58;;;;;;;75.70;10.93;;;6.00;99.90;;;;;;5051568;28;20028;-78
2021/03/12 12:04:23;;;;;;;88.90;9.82;;;6.00;99.90;;;;;;5050807;28;20025;-78
2021/03/12 12:06:50;;;;;;;77.55;8.85;;;6.00;99.90;;;;;;5033381;28;20074;-77
2021/03/12 12:09:16;;;;;;;72.15;9.60;;;6.00;99.90;;;;;;5051020;28;20052;-78
2021/03/12 12:11:41;;;;;;;83.95;9.45;;;6.00;99.90;;;;;;5051679;28;20021;-78
2021/03/12 12:14:07;;;;;;;85.72;11.10;;;6.00;99.90;;;;;;5050873;28;20091;-78
2021/03/12 12:16:32;;;;;;;55.67;8.02;;;6.20;99.90;;;;;;5051331;28;20112;-77
2021/03/12 12:19:04;;;;;;;64.45;8.88;;;6.10;99.90;;;;;;5051272;28;20097;-77
2021/03/12 12:21:30;;;;;;;62.25;13.95;;;6.20;99.90;;;;;;5033633;28;20489;-77
2021/03/12 12:23:55;;;;;;;85.30;9.55;;;6.20;99.90;;;;;;5050692;28;20075;-78
2021/03/12 12:26:21;;;;;;;59.30;8.95;;;6.20;99.90;;;;;;5051110;28;20037;-78
2021/03/12 12:28:46;;;;;;;66.15;8.88;;;6.30;99.90;;;;;;5050575;28;20079;-77
2021/03/12 12:31:12;;;;;;;61.35;8.60;;;6.30;99.90;;;;;;5051071;28;20053;-77
2021/03/12 12:33:38;;;;;;;53.42;8.70;;;6.30;99.90;;;;;;5051239;28;20025;-77
2021/03/12 12:36:04;;;;;;;59.20;8.50;;;6.30;99.90;;;;;;5050407;28;20021;-77
2021/03/12 12:38:30;;;;;;;63.95;9.05;;;6.50;99.90;;;;;;5051277;28;20021;-77
2021/03/12 12:40:56;;;;;;;65.20;8.70;;;6.50;99.90;;;;;;5033442;28;20036;-77
2021/03/12 12:43:21;;;;;;;55.60;7.22;;;6.60;99.90;;;;;;5051022;28;20028;-78
2021/03/12 12:45:47;;;;;;;72.63;8.63;;;6.60;99.90;;;;;;5050183;28;20539;-78
2021/03/12 12:48:12;;;;;;;67.80;10.00;;;6.50;99.90;;;;;;5033241;28;20021;-79
2021/03/12 12:50:38;;;;;;;59.53;7.70;;;6.50;99.90;;;;;;5051035;28;20033;-77
2021/03/12 12:53:03;;;;;;;57.78;8.95;;;6.50;99.90;;;;;;5051223;28;20469;-78
2021/03/12 12:55:29;;;;;;;40.97;7.78;;;6.50;99.90;;;;;;5050226;28;20025;-76